HFY1E HUEN-FNBJ
Flight info
| Callsign | HFY1E |
|---|---|
| Flight time | 2h 53m |
| Altitude | 38000 |
| Route | MANDY2B MANDY UL432 BJA UM306 UNDOS |
| Aircraft | A339/H-SADE1E2E3GHIJ3J5M1P2RWXY/LB2D1 |
Departure
| Time | 2026-04-30 18:31 |
|---|---|
| Airport | Entebbe International Airport (HUEN) |
Arrival
| Time | 2026-04-30 21:25 |
|---|---|
| Airport | Dr. Antonio Agostinho Neto International Airport (FNBJ) |
| Time | Latitude | Longitude | Altitude | Speed | Heading |
|---|---|---|---|---|---|
| 2026-04-30 18:00 | 0.04293 | 32.44212 | 3823 ft | 0 kts | 82° |
| 2026-04-30 18:21 | 0.04291 | 32.44201 | 3823 ft | 2 kts | 81° |
| 2026-04-30 18:21 | 0.04289 | 32.44186 | 3822 ft | 2 kts | 81° |
| 2026-04-30 18:21 | 0.04287 | 32.44171 | 3821 ft | 2 kts | 81° |
| 2026-04-30 18:21 | 0.04285 | 32.44156 | 3820 ft | 2 kts | 81° |
| 2026-04-30 18:22 | 0.04275 | 32.44138 | 3819 ft | 3 kts | 20° |
| 2026-04-30 18:22 | 0.04242 | 32.44141 | 3821 ft | 1 kts | 352° |
| 2026-04-30 18:22 | 0.04240 | 32.44141 | 3821 ft | 0 kts | 352° |
| 2026-04-30 18:23 | 0.04241 | 32.44141 | 3821 ft | 0 kts | 352° |
| 2026-04-30 18:23 | 0.04241 | 32.44140 | 3821 ft | 0 kts | 353° |
| 2026-04-30 18:25 | 0.04312 | 32.44131 | 3816 ft | 12 kts | 352° |
| 2026-04-30 18:25 | 0.04414 | 32.44117 | 3810 ft | 16 kts | 352° |
| 2026-04-30 18:26 | 0.04693 | 32.44079 | 3797 ft | 21 kts | 352° |
| 2026-04-30 18:26 | 0.04831 | 32.44054 | 3791 ft | 16 kts | 337° |
| 2026-04-30 18:26 | 0.04917 | 32.44010 | 3789 ft | 8 kts | 358° |
| 2026-04-30 18:27 | 0.05050 | 32.43993 | 3786 ft | 12 kts | 352° |
| 2026-04-30 18:27 | 0.05141 | 32.43980 | 3784 ft | 13 kts | 351° |
| 2026-04-30 18:28 | 0.05328 | 32.43907 | 3781 ft | 15 kts | 305° |
| 2026-04-30 18:28 | 0.05383 | 32.43821 | 3780 ft | 11 kts | 302° |
| 2026-04-30 18:28 | 0.05452 | 32.43723 | 3779 ft | 9 kts | 320° |
| 2026-04-30 18:29 | 0.05490 | 32.43670 | 3778 ft | 9 kts | 267° |
| 2026-04-30 18:29 | 0.05437 | 32.43643 | 3779 ft | 17 kts | 177° |
| 2026-04-30 18:30 | 0.04504 | 32.43769 | 3786 ft | 112 kts | 172° |
| 2026-04-30 18:30 | 0.02441 | 32.44053 | 3816 ft | 177 kts | 173° |
| 2026-04-30 18:31 | 0.01255 | 32.44211 | 4287 ft | 168 kts | 172° |
| 2026-04-30 18:31 | -0.01174 | 32.44553 | 4848 ft | 184 kts | 172° |
| 2026-04-30 18:32 | -0.03949 | 32.44941 | 5339 ft | 210 kts | 171° |
| 2026-04-30 18:32 | -0.05486 | 32.45157 | 5586 ft | 224 kts | 171° |
| 2026-04-30 18:32 | -0.08808 | 32.45622 | 6109 ft | 253 kts | 171° |
| 2026-04-30 18:33 | -0.10620 | 32.45875 | 6378 ft | 268 kts | 171° |
| 2026-04-30 18:33 | -0.14496 | 32.46415 | 7312 ft | 282 kts | 171° |
| 2026-04-30 18:33 | -0.16479 | 32.46692 | 7889 ft | 284 kts | 171° |
| 2026-04-30 18:34 | -0.18463 | 32.46969 | 8445 ft | 287 kts | 171° |
| 2026-04-30 18:34 | -0.22548 | 32.47236 | 9519 ft | 296 kts | 194° |
| 2026-04-30 18:34 | -0.24393 | 32.46283 | 10060 ft | 301 kts | 220° |
| 2026-04-30 18:35 | -0.25911 | 32.44806 | 10506 ft | 309 kts | 224° |
| 2026-04-30 18:35 | -0.27493 | 32.43203 | 10761 ft | 324 kts | 224° |
| 2026-04-30 18:35 | -0.29129 | 32.41557 | 11007 ft | 338 kts | 224° |
| 2026-04-30 18:36 | -0.32649 | 32.38068 | 11492 ft | 366 kts | 224° |
| 2026-04-30 18:36 | -0.34457 | 32.36288 | 11712 ft | 379 kts | 224° |
| 2026-04-30 18:36 | -0.38351 | 32.32465 | 12444 ft | 396 kts | 224° |
| 2026-04-30 18:37 | -0.40351 | 32.30499 | 13014 ft | 398 kts | 224° |
| 2026-04-30 18:37 | -0.42386 | 32.28500 | 13569 ft | 401 kts | 224° |
| 2026-04-30 18:37 | -0.44390 | 32.26535 | 14085 ft | 404 kts | 224° |
| 2026-04-30 18:37 | -0.46460 | 32.24503 | 14606 ft | 407 kts | 224° |
| 2026-04-30 18:38 | -0.48485 | 32.22516 | 15101 ft | 410 kts | 224° |
| 2026-04-30 18:38 | -0.50521 | 32.20509 | 15587 ft | 413 kts | 224° |
| 2026-04-30 18:38 | -0.52553 | 32.18501 | 16071 ft | 416 kts | 224° |
| 2026-04-30 18:38 | -0.54631 | 32.16446 | 16545 ft | 419 kts | 224° |
| 2026-04-30 18:39 | -0.56694 | 32.14405 | 17010 ft | 422 kts | 224° |
| 2026-04-30 18:39 | -0.58800 | 32.12325 | 17493 ft | 424 kts | 224° |
| 2026-04-30 18:39 | -0.60909 | 32.10241 | 17967 ft | 426 kts | 224° |
| 2026-04-30 18:39 | -0.62929 | 32.08045 | 18415 ft | 430 kts | 234° |
| 2026-04-30 18:40 | -0.64309 | 32.05397 | 18837 ft | 433 kts | 251° |
| 2026-04-30 18:40 | -0.64925 | 32.02433 | 19275 ft | 436 kts | 266° |
| 2026-04-30 18:40 | -0.65051 | 31.99450 | 19723 ft | 438 kts | 268° |
| 2026-04-30 18:40 | -0.65158 | 31.96397 | 20124 ft | 441 kts | 268° |
| 2026-04-30 18:41 | -0.65275 | 31.93321 | 20546 ft | 443 kts | 268° |
| 2026-04-30 18:41 | -0.65405 | 31.90233 | 20954 ft | 445 kts | 267° |
| 2026-04-30 18:41 | -0.65543 | 31.87146 | 21342 ft | 448 kts | 267° |
| 2026-04-30 18:41 | -0.65687 | 31.84057 | 21720 ft | 450 kts | 267° |
| 2026-04-30 18:42 | -0.65836 | 31.80909 | 22073 ft | 452 kts | 267° |
| 2026-04-30 18:42 | -0.66136 | 31.74620 | 22763 ft | 458 kts | 267° |
| 2026-04-30 18:42 | -0.66287 | 31.71451 | 23094 ft | 461 kts | 267° |
| 2026-04-30 18:45 | -0.82255 | 31.44789 | 26295 ft | 479 kts | 229° |
| 2026-04-30 18:45 | -0.84396 | 31.42238 | 26581 ft | 482 kts | 229° |
| 2026-04-30 18:45 | -0.86555 | 31.39663 | 26855 ft | 484 kts | 229° |
| 2026-04-30 18:46 | -0.88744 | 31.37051 | 27156 ft | 486 kts | 229° |
| 2026-04-30 18:46 | -0.90922 | 31.34451 | 27461 ft | 488 kts | 229° |
| 2026-04-30 18:46 | -0.93098 | 31.31850 | 27729 ft | 490 kts | 229° |
| 2026-04-30 18:46 | -0.95286 | 31.29236 | 28005 ft | 492 kts | 229° |
| 2026-04-30 18:47 | -0.97464 | 31.26636 | 28278 ft | 493 kts | 229° |
| 2026-04-30 18:47 | -0.99687 | 31.23994 | 28545 ft | 495 kts | 228° |
| 2026-04-30 18:47 | -1.01995 | 31.21429 | 28817 ft | 496 kts | 226° |
| 2026-04-30 18:47 | -1.04337 | 31.18883 | 29192 ft | 496 kts | 226° |
| 2026-04-30 18:48 | -1.06659 | 31.16367 | 29626 ft | 494 kts | 226° |
| 2026-04-30 18:48 | -1.08953 | 31.13880 | 30040 ft | 492 kts | 226° |
| 2026-04-30 18:48 | -1.11247 | 31.11390 | 30431 ft | 491 kts | 226° |
| 2026-04-30 18:48 | -1.13451 | 31.08992 | 30797 ft | 490 kts | 226° |
| 2026-04-30 18:49 | -1.15725 | 31.06518 | 31183 ft | 489 kts | 226° |
| 2026-04-30 18:49 | -1.17980 | 31.04063 | 31562 ft | 488 kts | 226° |
| 2026-04-30 18:49 | -1.20230 | 31.01612 | 31945 ft | 487 kts | 226° |
| 2026-04-30 18:49 | -1.22423 | 30.99224 | 32314 ft | 486 kts | 226° |
| 2026-04-30 18:50 | -1.24638 | 30.96810 | 32693 ft | 485 kts | 226° |
| 2026-04-30 18:50 | -1.26854 | 30.94395 | 33124 ft | 483 kts | 226° |
| 2026-04-30 18:50 | -1.29035 | 30.92018 | 33561 ft | 481 kts | 226° |
| 2026-04-30 18:50 | -1.31272 | 30.89581 | 34006 ft | 480 kts | 226° |
| 2026-04-30 18:51 | -1.33415 | 30.87244 | 34412 ft | 478 kts | 226° |
| 2026-04-30 18:51 | -1.35570 | 30.84894 | 34809 ft | 477 kts | 226° |
| 2026-04-30 18:51 | -1.37645 | 30.82630 | 35193 ft | 475 kts | 226° |
| 2026-04-30 18:51 | -1.39724 | 30.80362 | 35556 ft | 474 kts | 226° |
| 2026-04-30 18:52 | -1.41884 | 30.78006 | 35893 ft | 473 kts | 226° |
| 2026-04-30 18:52 | -1.43929 | 30.75778 | 36212 ft | 472 kts | 226° |
| 2026-04-30 18:52 | -1.46030 | 30.73475 | 36537 ft | 471 kts | 227° |
| 2026-04-30 18:52 | -1.48077 | 30.71147 | 36830 ft | 471 kts | 228° |
| 2026-04-30 18:53 | -1.50115 | 30.68790 | 37030 ft | 472 kts | 228° |
| 2026-04-30 18:53 | -1.52215 | 30.66354 | 37213 ft | 473 kts | 228° |
| 2026-04-30 18:53 | -1.54318 | 30.63916 | 37411 ft | 474 kts | 228° |
| 2026-04-30 18:53 | -1.56474 | 30.61420 | 37619 ft | 475 kts | 228° |
| 2026-04-30 18:54 | -1.58604 | 30.58958 | 37815 ft | 475 kts | 228° |
| 2026-04-30 18:54 | -1.60719 | 30.56515 | 37997 ft | 476 kts | 228° |
| 2026-04-30 18:54 | -1.62824 | 30.54084 | 38178 ft | 477 kts | 228° |
| 2026-04-30 18:55 | -1.66876 | 30.49406 | 38215 ft | 478 kts | 228° |
| 2026-04-30 18:55 | -1.72783 | 30.42582 | 38219 ft | 479 kts | 228° |
| 2026-04-30 18:56 | -1.78621 | 30.35838 | 38221 ft | 479 kts | 228° |
| 2026-04-30 18:57 | -1.84319 | 30.29258 | 38213 ft | 480 kts | 228° |
| 2026-04-30 18:57 | -1.88122 | 30.24867 | 38204 ft | 480 kts | 228° |
| 2026-04-30 18:58 | -1.93979 | 30.18432 | 38196 ft | 479 kts | 223° |
| 2026-04-30 18:59 | -2.00493 | 30.12892 | 38186 ft | 477 kts | 215° |
| 2026-04-30 19:00 | -2.10876 | 30.06370 | 38198 ft | 479 kts | 210° |
| 2026-04-30 19:01 | -2.22379 | 29.99496 | 38224 ft | 479 kts | 210° |
| 2026-04-30 19:02 | -2.30958 | 29.94374 | 38239 ft | 477 kts | 210° |
| 2026-04-30 19:03 | -2.42290 | 29.87598 | 38251 ft | 477 kts | 210° |
| 2026-04-30 19:04 | -2.53325 | 29.80985 | 38258 ft | 476 kts | 210° |
| 2026-04-30 19:05 | -2.63901 | 29.74645 | 38267 ft | 477 kts | 210° |
| 2026-04-30 19:06 | -2.74342 | 29.68378 | 38278 ft | 476 kts | 210° |
| 2026-04-30 19:06 | -2.82675 | 29.63386 | 38289 ft | 475 kts | 210° |
| 2026-04-30 19:07 | -2.90939 | 29.58445 | 38309 ft | 475 kts | 210° |
| 2026-04-30 19:08 | -3.01662 | 29.52016 | 38355 ft | 475 kts | 210° |
| 2026-04-30 19:09 | -3.09981 | 29.47024 | 38328 ft | 475 kts | 210° |
| 2026-04-30 19:09 | -3.15587 | 29.43658 | 38286 ft | 475 kts | 210° |
| 2026-04-30 19:10 | -3.26758 | 29.36901 | 38220 ft | 475 kts | 213° |
| 2026-04-30 19:11 | -3.33903 | 29.30339 | 38193 ft | 478 kts | 231° |
| 2026-04-30 19:12 | -3.37377 | 29.24891 | 38171 ft | 479 kts | 243° |
| 2026-04-30 19:12 | -3.39797 | 29.18985 | 38191 ft | 480 kts | 249° |
| 2026-04-30 19:13 | -3.44189 | 29.07143 | 38329 ft | 478 kts | 249° |
| 2026-04-30 19:14 | -3.46418 | 29.01254 | 38416 ft | 478 kts | 249° |
| 2026-04-30 19:14 | -3.48771 | 28.95066 | 38474 ft | 478 kts | 249° |
| 2026-04-30 19:15 | -3.51122 | 28.88927 | 38461 ft | 478 kts | 249° |
| 2026-04-30 19:15 | -3.54606 | 28.79804 | 38410 ft | 479 kts | 249° |
| 2026-04-30 19:16 | -3.56927 | 28.73709 | 38395 ft | 479 kts | 249° |
| 2026-04-30 19:17 | -3.60458 | 28.64432 | 38348 ft | 480 kts | 249° |
| 2026-04-30 19:17 | -3.63835 | 28.55598 | 38306 ft | 481 kts | 249° |
| 2026-04-30 19:18 | -3.67175 | 28.46832 | 38282 ft | 481 kts | 249° |
| 2026-04-30 19:19 | -3.69435 | 28.40892 | 38273 ft | 481 kts | 249° |
| 2026-04-30 19:19 | -3.72913 | 28.31745 | 38264 ft | 482 kts | 249° |
| 2026-04-30 19:20 | -3.75222 | 28.25669 | 38246 ft | 483 kts | 249° |
| 2026-04-30 19:21 | -3.78736 | 28.16421 | 38220 ft | 483 kts | 249° |
| 2026-04-30 19:22 | -3.83454 | 28.03994 | 38173 ft | 484 kts | 249° |
| 2026-04-30 19:23 | -3.90620 | 27.85109 | 38117 ft | 482 kts | 249° |
| 2026-04-30 19:24 | -3.94184 | 27.75713 | 38117 ft | 483 kts | 249° |
| 2026-04-30 19:25 | -4.00133 | 27.60021 | 38098 ft | 483 kts | 249° |
| 2026-04-30 19:26 | -4.04934 | 27.47340 | 38069 ft | 482 kts | 249° |
| 2026-04-30 19:27 | -4.08498 | 27.37913 | 38060 ft | 482 kts | 249° |
| 2026-04-30 19:28 | -4.12074 | 27.28455 | 38058 ft | 482 kts | 250° |
| 2026-04-30 19:29 | -4.16818 | 27.15852 | 38045 ft | 482 kts | 250° |
| 2026-04-30 19:30 | -4.21511 | 27.03315 | 38066 ft | 481 kts | 250° |
| 2026-04-30 19:31 | -4.25906 | 26.91565 | 38038 ft | 481 kts | 250° |
| 2026-04-30 19:31 | -4.29471 | 26.82022 | 38011 ft | 483 kts | 250° |
| 2026-04-30 19:32 | -4.31898 | 26.75590 | 37995 ft | 483 kts | 249° |
| 2026-04-30 19:32 | -4.34331 | 26.69162 | 37987 ft | 483 kts | 249° |
| 2026-04-30 19:33 | -4.36777 | 26.62682 | 37980 ft | 485 kts | 249° |
| 2026-04-30 19:33 | -4.39207 | 26.56236 | 37976 ft | 485 kts | 249° |
| 2026-04-30 19:34 | -4.41648 | 26.49754 | 37972 ft | 486 kts | 249° |
| 2026-04-30 19:35 | -4.45233 | 26.40225 | 37973 ft | 487 kts | 249° |
| 2026-04-30 19:35 | -4.47616 | 26.33888 | 37978 ft | 488 kts | 249° |
| 2026-04-30 19:36 | -4.50070 | 26.27353 | 37984 ft | 488 kts | 249° |
| 2026-04-30 19:36 | -4.53712 | 26.17668 | 37985 ft | 488 kts | 249° |
| 2026-04-30 19:37 | -4.56136 | 26.11260 | 37976 ft | 487 kts | 249° |
| 2026-04-30 19:37 | -4.58564 | 26.04822 | 37974 ft | 488 kts | 249° |
| 2026-04-30 19:38 | -4.61000 | 25.98350 | 37975 ft | 489 kts | 249° |
| 2026-04-30 19:38 | -4.63410 | 25.91937 | 37983 ft | 489 kts | 249° |
| 2026-04-30 19:39 | -4.65873 | 25.85384 | 37999 ft | 489 kts | 249° |
| 2026-04-30 19:39 | -4.68317 | 25.78880 | 38003 ft | 488 kts | 249° |
| 2026-04-30 19:40 | -4.70744 | 25.72419 | 37997 ft | 488 kts | 249° |
| 2026-04-30 19:40 | -4.73139 | 25.66040 | 37991 ft | 489 kts | 249° |
| 2026-04-30 19:41 | -4.75538 | 25.59648 | 37995 ft | 489 kts | 249° |
| 2026-04-30 19:41 | -4.77932 | 25.53267 | 37994 ft | 488 kts | 249° |
| 2026-04-30 19:42 | -4.80332 | 25.46868 | 37994 ft | 488 kts | 249° |
| 2026-04-30 19:42 | -4.82627 | 25.40749 | 37992 ft | 488 kts | 249° |
| 2026-04-30 19:43 | -4.85019 | 25.34370 | 37989 ft | 487 kts | 249° |
| 2026-04-30 19:44 | -4.88598 | 25.24817 | 37992 ft | 487 kts | 249° |
| 2026-04-30 19:44 | -4.90992 | 25.18425 | 37991 ft | 487 kts | 249° |
| 2026-04-30 19:45 | -4.93377 | 25.12053 | 37995 ft | 486 kts | 249° |
| 2026-04-30 19:45 | -4.95778 | 25.05642 | 37990 ft | 486 kts | 249° |
| 2026-04-30 19:46 | -4.98166 | 24.99262 | 37995 ft | 486 kts | 250° |
| 2026-04-30 19:46 | -5.00564 | 24.92847 | 38001 ft | 485 kts | 249° |
| 2026-04-30 19:47 | -5.02918 | 24.86546 | 38001 ft | 485 kts | 249° |
| 2026-04-30 19:47 | -5.05225 | 24.80375 | 38004 ft | 485 kts | 249° |
| 2026-04-30 19:48 | -5.07552 | 24.74147 | 38005 ft | 485 kts | 249° |
| 2026-04-30 19:48 | -5.09861 | 24.67965 | 38009 ft | 485 kts | 249° |
| 2026-04-30 19:49 | -5.12190 | 24.61727 | 38013 ft | 485 kts | 249° |
| 2026-04-30 19:49 | -5.15749 | 24.52190 | 38018 ft | 486 kts | 249° |
| 2026-04-30 19:50 | -5.18137 | 24.45787 | 38014 ft | 486 kts | 249° |
| 2026-04-30 19:50 | -5.20505 | 24.39435 | 38020 ft | 486 kts | 249° |
| 2026-04-30 19:51 | -5.22878 | 24.33064 | 38021 ft | 486 kts | 249° |
| 2026-04-30 19:51 | -5.25253 | 24.26684 | 38026 ft | 486 kts | 249° |
| 2026-04-30 19:52 | -5.27616 | 24.20327 | 38022 ft | 486 kts | 249° |
| 2026-04-30 19:52 | -5.29993 | 24.13932 | 38015 ft | 486 kts | 249° |
| 2026-04-30 19:53 | -5.32354 | 24.07535 | 38008 ft | 486 kts | 249° |
| 2026-04-30 19:53 | -5.34722 | 24.01090 | 38001 ft | 486 kts | 249° |
| 2026-04-30 19:54 | -5.37122 | 23.94568 | 37996 ft | 486 kts | 249° |
| 2026-04-30 19:54 | -5.39558 | 23.88015 | 38001 ft | 485 kts | 249° |
| 2026-04-30 19:55 | -5.41997 | 23.81454 | 38008 ft | 485 kts | 249° |
| 2026-04-30 19:55 | -5.44431 | 23.74887 | 38016 ft | 485 kts | 249° |
| 2026-04-30 19:56 | -5.46852 | 23.68343 | 38017 ft | 486 kts | 249° |
| 2026-04-30 19:56 | -5.49266 | 23.61816 | 38011 ft | 486 kts | 249° |
| 2026-04-30 19:57 | -5.51655 | 23.55345 | 38002 ft | 486 kts | 249° |
| 2026-04-30 19:57 | -5.54031 | 23.48906 | 37991 ft | 486 kts | 249° |
| 2026-04-30 19:58 | -5.56372 | 23.42483 | 37989 ft | 485 kts | 250° |
| 2026-04-30 19:58 | -5.58644 | 23.36081 | 37992 ft | 485 kts | 250° |
| 2026-04-30 19:59 | -5.60921 | 23.29651 | 37994 ft | 485 kts | 250° |
| 2026-04-30 20:00 | -5.64363 | 23.19936 | 38005 ft | 485 kts | 250° |
| 2026-04-30 20:00 | -5.66666 | 23.13438 | 38013 ft | 486 kts | 250° |
| 2026-04-30 20:01 | -5.70140 | 23.03631 | 38026 ft | 485 kts | 250° |
| 2026-04-30 20:01 | -5.72392 | 22.97268 | 38032 ft | 484 kts | 250° |
| 2026-04-30 20:02 | -5.75762 | 22.87740 | 38029 ft | 485 kts | 250° |
| 2026-04-30 20:03 | -5.79141 | 22.78184 | 38027 ft | 485 kts | 250° |
| 2026-04-30 20:03 | -5.81396 | 22.71799 | 38026 ft | 486 kts | 249° |
| 2026-04-30 20:04 | -5.83639 | 22.65446 | 38028 ft | 486 kts | 249° |
| 2026-04-30 20:05 | -5.86759 | 22.56599 | 38020 ft | 486 kts | 250° |
| 2026-04-30 20:05 | -5.90134 | 22.47014 | 38014 ft | 486 kts | 250° |
| 2026-04-30 20:06 | -5.92295 | 22.40584 | 38013 ft | 486 kts | 250° |
| 2026-04-30 20:06 | -5.94410 | 22.34182 | 38011 ft | 488 kts | 250° |
| 2026-04-30 20:07 | -5.96473 | 22.27951 | 38011 ft | 487 kts | 250° |
| 2026-04-30 20:08 | -5.99642 | 22.18393 | 38012 ft | 487 kts | 251° |
| 2026-04-30 20:08 | -6.01785 | 22.11924 | 38015 ft | 488 kts | 250° |
| 2026-04-30 20:09 | -6.03915 | 22.05493 | 38016 ft | 488 kts | 250° |
| 2026-04-30 20:09 | -6.07123 | 21.95800 | 38020 ft | 489 kts | 250° |
| 2026-04-30 20:10 | -6.10342 | 21.86071 | 38018 ft | 489 kts | 250° |
| 2026-04-30 20:11 | -6.13542 | 21.76377 | 38015 ft | 488 kts | 250° |
| 2026-04-30 20:11 | -6.15676 | 21.69908 | 38017 ft | 488 kts | 250° |
| 2026-04-30 20:12 | -6.18762 | 21.60204 | 38017 ft | 489 kts | 252° |
| 2026-04-30 20:13 | -6.20746 | 21.53726 | 38016 ft | 490 kts | 252° |
| 2026-04-30 20:13 | -6.22743 | 21.47214 | 38013 ft | 490 kts | 252° |
| 2026-04-30 20:14 | -6.24741 | 21.40715 | 38008 ft | 489 kts | 252° |
| 2026-04-30 20:14 | -6.26743 | 21.34201 | 38004 ft | 489 kts | 252° |
| 2026-04-30 20:15 | -6.28764 | 21.27629 | 38002 ft | 488 kts | 252° |
| 2026-04-30 20:15 | -6.30732 | 21.21223 | 38001 ft | 489 kts | 252° |
| 2026-04-30 20:16 | -6.32707 | 21.14793 | 38000 ft | 490 kts | 252° |
| 2026-04-30 20:16 | -6.34693 | 21.08315 | 37999 ft | 490 kts | 252° |
| 2026-04-30 20:17 | -6.36688 | 21.01805 | 38000 ft | 490 kts | 252° |
| 2026-04-30 20:17 | -6.38682 | 20.95293 | 37998 ft | 489 kts | 252° |
| 2026-04-30 20:18 | -6.40677 | 20.88766 | 37996 ft | 488 kts | 252° |
| 2026-04-30 20:18 | -6.42667 | 20.82261 | 37995 ft | 488 kts | 252° |
| 2026-04-30 20:19 | -6.44722 | 20.75770 | 37992 ft | 488 kts | 251° |
| 2026-04-30 20:19 | -6.46886 | 20.69281 | 37990 ft | 489 kts | 251° |
| 2026-04-30 20:20 | -6.49025 | 20.62833 | 37995 ft | 488 kts | 251° |
| 2026-04-30 20:20 | -6.51152 | 20.56375 | 37999 ft | 489 kts | 251° |
| 2026-04-30 20:21 | -6.53261 | 20.49956 | 38005 ft | 488 kts | 251° |
| 2026-04-30 20:21 | -6.55388 | 20.43480 | 38011 ft | 488 kts | 251° |
| 2026-04-30 20:22 | -6.57514 | 20.37003 | 38018 ft | 488 kts | 251° |
| 2026-04-30 20:22 | -6.59643 | 20.30515 | 38024 ft | 488 kts | 251° |
| 2026-04-30 20:23 | -6.61771 | 20.24026 | 38028 ft | 487 kts | 251° |
| 2026-04-30 20:23 | -6.63884 | 20.17577 | 38031 ft | 487 kts | 251° |
| 2026-04-30 20:24 | -6.66000 | 20.11113 | 38036 ft | 488 kts | 251° |
| 2026-04-30 20:24 | -6.68104 | 20.04684 | 38038 ft | 487 kts | 251° |
| 2026-04-30 20:25 | -6.71211 | 19.95181 | 38037 ft | 487 kts | 252° |
| 2026-04-30 20:26 | -6.74256 | 19.85850 | 38041 ft | 487 kts | 252° |
| 2026-04-30 20:26 | -6.77352 | 19.76356 | 38045 ft | 487 kts | 251° |
| 2026-04-30 20:27 | -6.81568 | 19.63456 | 38061 ft | 488 kts | 251° |
| 2026-04-30 20:28 | -6.85772 | 19.50524 | 38072 ft | 488 kts | 251° |
| 2026-04-30 20:30 | -6.91037 | 19.34296 | 38081 ft | 488 kts | 251° |
| 2026-04-30 20:31 | -6.97499 | 19.14865 | 38095 ft | 489 kts | 251° |
| 2026-04-30 20:32 | -7.02858 | 18.98681 | 38095 ft | 489 kts | 251° |
| 2026-04-30 20:33 | -7.06085 | 18.88918 | 38101 ft | 489 kts | 251° |
| 2026-04-30 20:34 | -7.09295 | 18.79195 | 38104 ft | 489 kts | 251° |
| 2026-04-30 20:35 | -7.12504 | 18.69465 | 38105 ft | 487 kts | 251° |
| 2026-04-30 20:35 | -7.15773 | 18.59536 | 38112 ft | 487 kts | 251° |
| 2026-04-30 20:36 | -7.17904 | 18.53058 | 38116 ft | 488 kts | 251° |
| 2026-04-30 20:37 | -7.21015 | 18.43334 | 38122 ft | 488 kts | 251° |
| 2026-04-30 20:37 | -7.23062 | 18.36816 | 38120 ft | 488 kts | 251° |
| 2026-04-30 20:38 | -7.25125 | 18.30254 | 38115 ft | 487 kts | 252° |
| 2026-04-30 20:38 | -7.27148 | 18.23809 | 38120 ft | 487 kts | 252° |
| 2026-04-30 20:39 | -7.30206 | 18.14077 | 38118 ft | 486 kts | 251° |
| 2026-04-30 20:40 | -7.33382 | 18.04269 | 38105 ft | 487 kts | 251° |
| 2026-04-30 20:40 | -7.35483 | 17.97780 | 38093 ft | 487 kts | 251° |
| 2026-04-30 20:41 | -7.38615 | 17.88060 | 38078 ft | 487 kts | 251° |
| 2026-04-30 20:41 | -7.40696 | 17.81586 | 38075 ft | 486 kts | 251° |
| 2026-04-30 20:42 | -7.42777 | 17.75113 | 38069 ft | 486 kts | 251° |
| 2026-04-30 20:43 | -7.45899 | 17.65399 | 38069 ft | 486 kts | 251° |
| 2026-04-30 20:43 | -7.47964 | 17.58964 | 38060 ft | 486 kts | 251° |
| 2026-04-30 20:44 | -7.51089 | 17.49218 | 38063 ft | 485 kts | 251° |
| 2026-04-30 20:45 | -7.55229 | 17.36272 | 38052 ft | 485 kts | 251° |
| 2026-04-30 20:45 | -7.57299 | 17.29813 | 38044 ft | 485 kts | 251° |
| 2026-04-30 20:46 | -7.61406 | 17.17034 | 38031 ft | 485 kts | 251° |
| 2026-04-30 20:47 | -7.64446 | 17.07528 | 38031 ft | 484 kts | 251° |
| 2026-04-30 20:48 | -7.67472 | 16.98048 | 38036 ft | 483 kts | 251° |
| 2026-04-30 20:48 | -7.69514 | 16.91649 | 38033 ft | 483 kts | 251° |
| 2026-04-30 20:49 | -7.71567 | 16.85209 | 38037 ft | 482 kts | 251° |
| 2026-04-30 20:50 | -7.74634 | 16.75584 | 38036 ft | 483 kts | 251° |
| 2026-04-30 20:50 | -7.76689 | 16.69131 | 38045 ft | 482 kts | 251° |
| 2026-04-30 20:51 | -7.78662 | 16.62930 | 38046 ft | 481 kts | 251° |
| 2026-04-30 20:51 | -7.81713 | 16.53337 | 38066 ft | 479 kts | 251° |
| 2026-04-30 20:52 | -7.83672 | 16.47167 | 38077 ft | 479 kts | 251° |
| 2026-04-30 20:53 | -7.86707 | 16.37605 | 38093 ft | 479 kts | 251° |
| 2026-04-30 20:53 | -7.88742 | 16.31199 | 38109 ft | 477 kts | 251° |
| 2026-04-30 20:54 | -7.91761 | 16.21676 | 38120 ft | 476 kts | 251° |
| 2026-04-30 20:55 | -7.94777 | 16.12157 | 37935 ft | 476 kts | 251° |
| 2026-04-30 20:55 | -7.95775 | 16.09004 | 37641 ft | 474 kts | 251° |
| 2026-04-30 20:55 | -7.96770 | 16.05859 | 37341 ft | 471 kts | 251° |
| 2026-04-30 20:56 | -7.98745 | 15.99614 | 36570 ft | 468 kts | 251° |
| 2026-04-30 20:56 | -7.99698 | 15.96600 | 35992 ft | 469 kts | 251° |
| 2026-04-30 20:56 | -8.01677 | 15.90337 | 34861 ft | 467 kts | 251° |
| 2026-04-30 20:57 | -8.02659 | 15.87232 | 34292 ft | 467 kts | 251° |
| 2026-04-30 20:57 | -8.03640 | 15.84123 | 33693 ft | 467 kts | 251° |
| 2026-04-30 20:57 | -8.04609 | 15.81053 | 33080 ft | 467 kts | 251° |
| 2026-04-30 20:58 | -8.06588 | 15.74784 | 31902 ft | 468 kts | 251° |
| 2026-04-30 20:58 | -8.07570 | 15.71671 | 31249 ft | 471 kts | 251° |
| 2026-04-30 20:58 | -8.08558 | 15.68537 | 30548 ft | 474 kts | 251° |
| 2026-04-30 20:58 | -8.09561 | 15.65357 | 29807 ft | 478 kts | 251° |
| 2026-04-30 20:59 | -8.11580 | 15.58947 | 28291 ft | 487 kts | 251° |
| 2026-04-30 20:59 | -8.12610 | 15.55678 | 27589 ft | 489 kts | 251° |
| 2026-04-30 21:00 | -8.14647 | 15.49208 | 26771 ft | 484 kts | 251° |
| 2026-04-30 21:00 | -8.16672 | 15.42769 | 25996 ft | 477 kts | 251° |
| 2026-04-30 21:01 | -8.18653 | 15.36463 | 25161 ft | 470 kts | 251° |
| 2026-04-30 21:01 | -8.19637 | 15.33330 | 24743 ft | 466 kts | 252° |
| 2026-04-30 21:01 | -8.21558 | 15.27198 | 23890 ft | 459 kts | 252° |
| 2026-04-30 21:02 | -8.22512 | 15.24154 | 23457 ft | 456 kts | 252° |
| 2026-04-30 21:02 | -8.23467 | 15.21104 | 23048 ft | 451 kts | 252° |
| 2026-04-30 21:02 | -8.24395 | 15.18144 | 22654 ft | 447 kts | 252° |
| 2026-04-30 21:02 | -8.25330 | 15.15175 | 22251 ft | 443 kts | 252° |
| 2026-04-30 21:03 | -8.26270 | 15.12195 | 21836 ft | 440 kts | 251° |
| 2026-04-30 21:03 | -8.27179 | 15.09310 | 21422 ft | 437 kts | 252° |
| 2026-04-30 21:03 | -8.28098 | 15.06384 | 21017 ft | 433 kts | 251° |
| 2026-04-30 21:03 | -8.28999 | 15.03514 | 20616 ft | 430 kts | 251° |
| 2026-04-30 21:04 | -8.29897 | 15.00649 | 20217 ft | 426 kts | 251° |
| 2026-04-30 21:04 | -8.30783 | 14.97820 | 19814 ft | 423 kts | 251° |
| 2026-04-30 21:04 | -8.32540 | 14.92211 | 18994 ft | 418 kts | 251° |
| 2026-04-30 21:05 | -8.33417 | 14.89408 | 18584 ft | 415 kts | 251° |
| 2026-04-30 21:05 | -8.34288 | 14.86623 | 18171 ft | 413 kts | 251° |
| 2026-04-30 21:05 | -8.35142 | 14.83892 | 17768 ft | 410 kts | 251° |
| 2026-04-30 21:05 | -8.35992 | 14.81174 | 17370 ft | 408 kts | 251° |
| 2026-04-30 21:06 | -8.36842 | 14.78453 | 16970 ft | 405 kts | 251° |
| 2026-04-30 21:06 | -8.37688 | 14.75752 | 16554 ft | 404 kts | 251° |
| 2026-04-30 21:06 | -8.38520 | 14.73090 | 16121 ft | 403 kts | 251° |
| 2026-04-30 21:06 | -8.39373 | 14.70363 | 15651 ft | 402 kts | 251° |
| 2026-04-30 21:07 | -8.40206 | 14.67698 | 15202 ft | 401 kts | 252° |
| 2026-04-30 21:07 | -8.41037 | 14.65032 | 14747 ft | 400 kts | 252° |
| 2026-04-30 21:07 | -8.41863 | 14.62375 | 14319 ft | 399 kts | 252° |
| 2026-04-30 21:07 | -8.42695 | 14.59704 | 13880 ft | 397 kts | 252° |
| 2026-04-30 21:08 | -8.43526 | 14.57041 | 13444 ft | 395 kts | 252° |
| 2026-04-30 21:08 | -8.44340 | 14.54439 | 13014 ft | 392 kts | 252° |
| 2026-04-30 21:08 | -8.45277 | 14.51855 | 12599 ft | 390 kts | 248° |
| 2026-04-30 21:08 | -8.46302 | 14.49315 | 12185 ft | 387 kts | 248° |
| 2026-04-30 21:09 | -8.47314 | 14.46837 | 11763 ft | 385 kts | 248° |
| 2026-04-30 21:09 | -8.48327 | 14.44362 | 11341 ft | 382 kts | 248° |
| 2026-04-30 21:09 | -8.49337 | 14.41886 | 10896 ft | 381 kts | 248° |
| 2026-04-30 21:09 | -8.50351 | 14.39395 | 10506 ft | 377 kts | 248° |
| 2026-04-30 21:10 | -8.51318 | 14.37015 | 10417 ft | 365 kts | 248° |
| 2026-04-30 21:10 | -8.52273 | 14.34660 | 10338 ft | 353 kts | 248° |
| 2026-04-30 21:10 | -8.53182 | 14.32418 | 10262 ft | 342 kts | 248° |
| 2026-04-30 21:10 | -8.54068 | 14.30230 | 10201 ft | 330 kts | 248° |
| 2026-04-30 21:11 | -8.54923 | 14.28120 | 10150 ft | 320 kts | 248° |
| 2026-04-30 21:11 | -8.55746 | 14.26087 | 10103 ft | 309 kts | 249° |
| 2026-04-30 21:11 | -8.56547 | 14.24107 | 10003 ft | 301 kts | 249° |
| 2026-04-30 21:11 | -8.57340 | 14.22145 | 9692 ft | 302 kts | 249° |
| 2026-04-30 21:12 | -8.58137 | 14.20178 | 9390 ft | 302 kts | 249° |
| 2026-04-30 21:12 | -8.58926 | 14.18226 | 9102 ft | 302 kts | 248° |
| 2026-04-30 21:12 | -8.59715 | 14.16273 | 8826 ft | 301 kts | 248° |
| 2026-04-30 21:12 | -8.60504 | 14.14320 | 8557 ft | 299 kts | 248° |
| 2026-04-30 21:13 | -8.61291 | 14.12375 | 8301 ft | 298 kts | 248° |
| 2026-04-30 21:13 | -8.62073 | 14.10441 | 8029 ft | 297 kts | 248° |
| 2026-04-30 21:13 | -8.62848 | 14.08527 | 7759 ft | 296 kts | 248° |
| 2026-04-30 21:13 | -8.63634 | 14.06584 | 7489 ft | 295 kts | 248° |
| 2026-04-30 21:14 | -8.64394 | 14.04690 | 7213 ft | 294 kts | 248° |
| 2026-04-30 21:14 | -8.65171 | 14.02769 | 6926 ft | 294 kts | 248° |
| 2026-04-30 21:14 | -8.65945 | 14.00858 | 6681 ft | 292 kts | 248° |
| 2026-04-30 21:14 | -8.66704 | 13.98985 | 6662 ft | 281 kts | 248° |
| 2026-04-30 21:15 | -8.67422 | 13.97210 | 6662 ft | 270 kts | 248° |
| 2026-04-30 21:15 | -8.68115 | 13.95496 | 6659 ft | 259 kts | 248° |
| 2026-04-30 21:15 | -8.68913 | 13.93881 | 6629 ft | 250 kts | 234° |
| 2026-04-30 21:15 | -8.69957 | 13.92658 | 6430 ft | 253 kts | 225° |
| 2026-04-30 21:16 | -8.71215 | 13.91413 | 6173 ft | 255 kts | 224° |
| 2026-04-30 21:16 | -8.72501 | 13.90171 | 5928 ft | 255 kts | 224° |
| 2026-04-30 21:16 | -8.73770 | 13.88934 | 5692 ft | 256 kts | 224° |
| 2026-04-30 21:16 | -8.75052 | 13.87671 | 5441 ft | 256 kts | 224° |
| 2026-04-30 21:17 | -8.76337 | 13.86397 | 5195 ft | 256 kts | 224° |
| 2026-04-30 21:17 | -8.77596 | 13.85143 | 4952 ft | 257 kts | 224° |
| 2026-04-30 21:17 | -8.78883 | 13.83859 | 4704 ft | 257 kts | 224° |
| 2026-04-30 21:17 | -8.80170 | 13.82591 | 4455 ft | 257 kts | 219° |
| 2026-04-30 21:18 | -8.81614 | 13.81515 | 4211 ft | 257 kts | 213° |
| 2026-04-30 21:18 | -8.83097 | 13.80520 | 3971 ft | 258 kts | 215° |
| 2026-04-30 21:18 | -8.84456 | 13.79338 | 3732 ft | 258 kts | 226° |
| 2026-04-30 21:18 | -8.85614 | 13.77961 | 3495 ft | 259 kts | 231° |
| 2026-04-30 21:19 | -8.86688 | 13.76533 | 3256 ft | 259 kts | 232° |
| 2026-04-30 21:19 | -8.87761 | 13.75066 | 3031 ft | 258 kts | 233° |
| 2026-04-30 21:19 | -8.88805 | 13.73633 | 2976 ft | 250 kts | 233° |
| 2026-04-30 21:19 | -8.89830 | 13.72234 | 2970 ft | 240 kts | 232° |
| 2026-04-30 21:20 | -8.90801 | 13.70916 | 2962 ft | 230 kts | 232° |
| 2026-04-30 21:20 | -8.91739 | 13.69646 | 2960 ft | 219 kts | 232° |
| 2026-04-30 21:20 | -8.92629 | 13.68445 | 2958 ft | 210 kts | 232° |
| 2026-04-30 21:20 | -8.93515 | 13.67250 | 2976 ft | 213 kts | 232° |
| 2026-04-30 21:21 | -8.94408 | 13.66049 | 2979 ft | 213 kts | 232° |
| 2026-04-30 21:21 | -8.95304 | 13.64841 | 2983 ft | 214 kts | 232° |
| 2026-04-30 21:21 | -8.97081 | 13.62448 | 2963 ft | 215 kts | 232° |
| 2026-04-30 21:22 | -8.97992 | 13.61220 | 2749 ft | 215 kts | 232° |
| 2026-04-30 21:22 | -9.00597 | 13.57710 | 1939 ft | 195 kts | 232° |
| 2026-04-30 21:23 | -9.01415 | 13.56609 | 1691 ft | 187 kts | 232° |
| 2026-04-30 21:23 | -9.02196 | 13.55557 | 1446 ft | 180 kts | 232° |
| 2026-04-30 21:23 | -9.03660 | 13.53586 | 984 ft | 166 kts | 232° |
| 2026-04-30 21:24 | -9.04359 | 13.52642 | 792 ft | 157 kts | 232° |
| 2026-04-30 21:24 | -9.05004 | 13.51749 | 623 ft | 148 kts | 232° |
| 2026-04-30 21:24 | -9.05594 | 13.50960 | 564 ft | 122 kts | 230° |
| 2026-04-30 21:24 | -9.06045 | 13.50378 | 570 ft | 84 kts | 234° |
| 2026-04-30 21:25 | -9.06525 | 13.49730 | 570 ft | 22 kts | 232° |
| 2026-04-30 21:25 | -9.06624 | 13.49600 | 567 ft | 22 kts | 232° |
| 2026-04-30 21:25 | -9.06722 | 13.49470 | 564 ft | 23 kts | 232° |
| 2026-04-30 21:26 | -9.06856 | 13.49293 | 559 ft | 14 kts | 234° |
| 2026-04-30 21:26 | -9.06926 | 13.49194 | 552 ft | 19 kts | 235° |
| 2026-04-30 21:27 | -9.06973 | 13.49127 | 549 ft | 1 kts | 258° |
| 2026-04-30 21:27 | -9.06956 | 13.49114 | 550 ft | 3 kts | 335° |
| 2026-04-30 21:27 | -9.06900 | 13.49088 | 544 ft | 14 kts | 341° |
| 2026-04-30 21:28 | -9.06758 | 13.49122 | 552 ft | 7 kts | 47° |
| 2026-04-30 21:28 | -9.06725 | 13.49161 | 554 ft | 7 kts | 51° |
| 2026-04-30 21:28 | -9.06655 | 13.49261 | 558 ft | 8 kts | 55° |
| 2026-04-30 21:29 | -9.06608 | 13.49331 | 559 ft | 16 kts | 56° |
| 2026-04-30 21:29 | -9.06358 | 13.49660 | 567 ft | 17 kts | 54° |
| 2026-04-30 21:30 | -9.06221 | 13.49848 | 570 ft | 16 kts | 54° |
| 2026-04-30 21:31 | -9.05951 | 13.49936 | 566 ft | 18 kts | 322° |
| 2026-04-30 21:31 | -9.05731 | 13.49763 | 561 ft | 21 kts | 323° |
| 2026-04-30 21:32 | -9.05493 | 13.49581 | 560 ft | 20 kts | 323° |
| 2026-04-30 21:32 | -9.05370 | 13.49489 | 558 ft | 21 kts | 324° |
| 2026-04-30 21:32 | -9.05245 | 13.49396 | 555 ft | 22 kts | 323° |
| 2026-04-30 21:32 | -9.05117 | 13.49301 | 553 ft | 22 kts | 323° |
| 2026-04-30 21:33 | -9.04994 | 13.49206 | 554 ft | 21 kts | 322° |
| 2026-04-30 21:33 | -9.04755 | 13.49088 | 554 ft | 17 kts | 34° |
| 2026-04-30 21:33 | -9.04674 | 13.49186 | 552 ft | 18 kts | 53° |
| 2026-04-30 21:34 | -9.04594 | 13.49293 | 551 ft | 19 kts | 53° |
| 2026-04-30 21:34 | -9.04430 | 13.49507 | 550 ft | 19 kts | 53° |
| 2026-04-30 21:34 | -9.04352 | 13.49610 | 553 ft | 17 kts | 51° |
| 2026-04-30 21:35 | -9.04279 | 13.49702 | 556 ft | 15 kts | 52° |
| 2026-04-30 21:35 | -9.04217 | 13.49787 | 559 ft | 14 kts | 54° |
| 2026-04-30 21:35 | -9.04160 | 13.49866 | 562 ft | 13 kts | 54° |
| 2026-04-30 21:35 | -9.04125 | 13.49939 | 563 ft | 10 kts | 96° |
| 2026-04-30 21:36 | -9.04159 | 13.50003 | 562 ft | 11 kts | 133° |
| 2026-04-30 21:36 | -9.04170 | 13.50014 | 562 ft | 0 kts | 137° |